createdAt,value
2023-04-02T00:01:02.007Z,9.14
2023-04-02T00:04:22.551Z,9.14
2023-04-02T00:07:33.440Z,9.08
2023-04-02T00:10:36.933Z,9.09
2023-04-02T00:13:44.224Z,9.04
2023-04-02T00:16:47.372Z,9.00
2023-04-02T00:19:58.344Z,8.93
2023-04-02T00:23:03.315Z,8.99
2023-04-02T00:26:31.355Z,8.97
2023-04-02T00:29:34.446Z,8.93
2023-04-02T00:32:37.400Z,8.87
2023-04-02T00:35:41.414Z,8.86
2023-04-02T00:38:46.699Z,8.86
2023-04-02T00:41:54.772Z,8.86
2023-04-02T00:44:58.739Z,8.85
2023-04-02T00:48:21.201Z,8.78
2023-04-02T00:51:36.038Z,8.90
2023-04-02T00:54:45.378Z,8.87
2023-04-02T00:57:50.007Z,8.84
2023-04-02T01:00:54.124Z,8.89
2023-04-02T01:04:02.470Z,8.94
2023-04-02T01:07:09.721Z,8.91
2023-04-02T01:10:58.239Z,8.93
2023-04-02T01:14:01.280Z,8.94
2023-04-02T01:17:43.022Z,8.95
2023-04-02T01:21:01.922Z,8.93
2023-04-02T01:24:07.839Z,8.98
2023-04-02T01:27:21.550Z,9.00
2023-04-02T01:30:25.218Z,8.98
2023-04-02T01:33:34.585Z,8.93
2023-04-02T01:36:53.701Z,8.92
2023-04-02T01:40:26.905Z,8.85
2023-04-02T01:43:37.336Z,8.86
2023-04-02T01:46:43.159Z,8.90
2023-04-02T01:49:47.346Z,8.85
2023-04-02T01:52:54.182Z,8.78
2023-04-02T01:56:00.326Z,8.82
2023-04-02T01:59:06.043Z,8.90
2023-04-02T02:02:14.115Z,8.85
2023-04-02T02:05:21.010Z,8.87
2023-04-02T02:08:29.317Z,8.83
2023-04-02T02:11:34.047Z,8.87
2023-04-02T02:14:36.647Z,8.89
2023-04-02T02:17:40.440Z,8.86
2023-04-02T02:20:43.673Z,8.86
2023-04-02T02:23:46.979Z,8.86
2023-04-02T02:27:03.871Z,8.88
2023-04-02T02:30:34.967Z,8.81
2023-04-02T02:33:51.118Z,8.77
2023-04-02T02:37:05.002Z,8.82
2023-04-02T02:40:23.975Z,8.77
2023-04-02T02:43:27.283Z,8.62
2023-04-02T02:46:34.206Z,8.60
2023-04-02T02:49:43.554Z,8.51
2023-04-02T02:52:52.362Z,8.57
2023-04-02T02:56:00.474Z,8.52
2023-04-02T02:59:07.640Z,8.48
2023-04-02T03:02:11.489Z,8.43
2023-04-02T03:05:21.219Z,8.47
2023-04-02T03:09:06.957Z,8.50
2023-04-02T03:12:28.145Z,8.62
2023-04-02T03:15:42.732Z,8.66
2023-04-02T03:18:57.949Z,8.74
2023-04-02T03:22:32.289Z,8.81
2023-04-02T03:25:50.542Z,8.73
2023-04-02T03:29:03.041Z,8.89
2023-04-02T03:32:15.920Z,8.91
2023-04-02T03:35:25.053Z,8.69
2023-04-02T03:38:44.892Z,8.94
2023-04-02T03:42:02.876Z,8.90
2023-04-02T03:45:15.487Z,9.05
2023-04-02T03:48:34.719Z,9.12
2023-04-02T03:51:47.107Z,9.15
2023-04-02T03:54:53.516Z,9.12
2023-04-02T03:58:01.912Z,9.13
2023-04-02T04:01:13.423Z,9.13
2023-04-02T04:04:19.562Z,9.11
2023-04-02T04:07:32.625Z,9.12
2023-04-02T04:10:36.315Z,9.09
2023-04-02T04:13:49.747Z,9.12
2023-04-02T04:17:01.977Z,9.11
2023-04-02T04:20:29.799Z,9.08
2023-04-02T04:23:41.047Z,9.12
2023-04-02T04:27:04.006Z,9.12
2023-04-02T04:30:27.329Z,9.01
2023-04-02T04:33:41.424Z,9.04
2023-04-02T04:36:54.833Z,9.03
2023-04-02T04:40:11.345Z,9.01
2023-04-02T04:43:39.463Z,8.96
2023-04-02T04:46:54.220Z,9.01
2023-04-02T04:50:04.964Z,9.00
2023-04-02T04:53:21.251Z,9.03
2023-04-02T04:56:28.566Z,9.15
2023-04-02T04:59:40.673Z,9.19
2023-04-02T05:02:52.604Z,9.24
2023-04-02T05:06:03.013Z,9.25
2023-04-02T05:09:28.835Z,9.32
2023-04-02T05:12:36.608Z,9.28
2023-04-02T05:16:01.940Z,9.39
2023-04-02T05:19:24.128Z,9.42
2023-04-02T05:22:43.783Z,9.43
2023-04-02T05:26:16.519Z,9.48
2023-04-02T05:29:33.382Z,9.53
2023-04-02T05:32:42.018Z,9.55
2023-04-02T05:35:49.645Z,9.56
2023-04-02T05:38:54.553Z,9.60
2023-04-02T05:42:14.647Z,9.67
2023-04-02T05:45:32.186Z,9.66
2023-04-02T05:48:43.882Z,9.79
2023-04-02T05:51:51.384Z,9.85
2023-04-02T05:55:18.537Z,9.92
2023-04-02T05:58:46.695Z,9.96
2023-04-02T06:02:17.475Z,10.03
2023-04-02T06:05:29.039Z,10.11
2023-04-02T06:08:39.595Z,10.24
2023-04-02T06:11:48.983Z,10.32
2023-04-02T06:14:52.940Z,10.46
2023-04-02T06:18:09.663Z,10.57
2023-04-02T06:21:17.650Z,10.91
2023-04-02T06:24:26.201Z,11.03
2023-04-02T06:27:29.509Z,11.22
2023-04-02T06:30:36.523Z,11.35
2023-04-02T06:33:40.265Z,11.56
2023-04-02T06:36:45.461Z,11.75
2023-04-02T06:39:52.963Z,11.84
2023-04-02T06:42:59.921Z,11.85
2023-04-02T06:46:11.261Z,12.20
2023-04-02T06:49:40.494Z,12.44
2023-04-02T06:52:51.702Z,12.21
2023-04-02T06:56:05.606Z,11.95
2023-04-02T06:59:09.627Z,12.13
2023-04-02T07:02:27.144Z,12.14
2023-04-02T07:05:30.049Z,12.00
2023-04-02T07:08:33.180Z,11.88
2023-04-02T07:11:36.404Z,11.88
2023-04-02T07:14:39.889Z,11.79
2023-04-02T07:17:43.655Z,12.02
2023-04-02T07:20:46.991Z,12.09
2023-04-02T07:23:50.561Z,12.19
2023-04-02T07:26:53.547Z,12.41
2023-04-02T07:29:56.231Z,12.70
2023-04-02T07:32:59.399Z,12.91
2023-04-02T07:36:02.324Z,13.14
2023-04-02T07:39:05.679Z,13.30
2023-04-02T07:42:08.780Z,13.17
2023-04-02T07:45:12.141Z,13.44
2023-04-02T07:48:15.243Z,13.80
2023-04-02T07:51:21.741Z,13.44
2023-04-02T07:54:24.476Z,16.22
2023-04-02T07:57:27.833Z,14.93
2023-04-02T08:00:30.583Z,15.05
2023-04-02T08:03:33.665Z,14.48
2023-04-02T08:06:36.419Z,14.20
2023-04-02T08:09:39.393Z,15.10
2023-04-02T08:12:42.157Z,15.09
2023-04-02T08:15:45.762Z,13.92
2023-04-02T08:18:48.537Z,13.58
2023-04-02T08:21:52.002Z,13.20
2023-04-02T08:24:55.089Z,12.85
2023-04-02T08:27:58.174Z,12.64
2023-04-02T08:31:01.517Z,12.46
2023-04-02T08:34:04.698Z,12.41
2023-04-02T08:37:08.859Z,12.68
2023-04-02T08:40:45.604Z,12.95
2023-04-02T08:43:57.959Z,13.39
2023-04-02T08:47:05.495Z,13.80
2023-04-02T08:50:30.273Z,14.03
2023-04-02T08:53:37.572Z,14.37
2023-04-02T08:56:51.990Z,14.15
2023-04-02T09:00:06.296Z,14.49
2023-04-02T09:03:17.672Z,14.66
2023-04-02T09:06:21.782Z,14.19
2023-04-02T09:09:25.496Z,13.62
2023-04-02T09:12:31.916Z,13.10
2023-04-02T09:15:36.579Z,13.15
2023-04-02T09:18:40.613Z,13.90
2023-04-02T09:21:48.640Z,14.03
2023-04-02T09:25:00.544Z,13.96
2023-04-02T09:28:05.092Z,14.03
2023-04-02T09:31:26.923Z,14.06
2023-04-02T09:34:34.920Z,14.37
2023-04-02T09:37:38.436Z,14.46
2023-04-02T09:41:01.545Z,14.33
2023-04-02T09:44:26.646Z,14.28
2023-04-02T09:47:32.254Z,13.83
2023-04-02T09:50:35.552Z,13.20
2023-04-02T09:53:46.728Z,13.05
2023-04-02T09:57:01.541Z,12.72
2023-04-02T10:00:31.354Z,12.62
2023-04-02T10:03:37.894Z,12.69
2023-04-02T10:06:49.924Z,13.23
2023-04-02T10:10:01.242Z,13.56
2023-04-02T10:13:19.319Z,13.98
2023-04-02T10:16:34.971Z,14.44
2023-04-02T10:19:42.052Z,14.44
2023-04-02T10:22:46.427Z,14.38
2023-04-02T10:26:29.236Z,14.18
2023-04-02T10:29:49.529Z,13.56
2023-04-02T10:33:05.820Z,13.56
2023-04-02T10:36:10.910Z,13.76
2023-04-02T10:39:20.413Z,14.09
2023-04-02T10:42:53.174Z,14.31
2023-04-02T10:46:01.664Z,14.51
2023-04-02T10:49:19.786Z,14.34
2023-04-02T10:52:41.372Z,14.25
2023-04-02T10:55:48.820Z,13.89
2023-04-02T10:58:57.687Z,13.78
2023-04-02T11:02:04.239Z,14.13
2023-04-02T11:05:15.904Z,14.40
2023-04-02T11:08:28.494Z,14.40
2023-04-02T11:11:38.916Z,14.36
2023-04-02T11:14:42.027Z,14.39
2023-04-02T11:17:45.914Z,14.21
2023-04-02T11:20:48.914Z,14.29
2023-04-02T11:24:03.079Z,14.80
2023-04-02T11:27:11.959Z,14.89
2023-04-02T11:30:26.031Z,14.61
2023-04-02T11:33:38.152Z,15.05
2023-04-02T11:36:50.864Z,15.15
2023-04-02T11:39:56.945Z,15.20
2023-04-02T11:43:35.308Z,15.04
2023-04-02T11:46:42.888Z,15.27
2023-04-02T11:49:54.855Z,15.66
2023-04-02T11:53:03.715Z,15.11
2023-04-02T11:56:08.031Z,14.58
2023-04-02T11:59:14.315Z,14.52
2023-04-02T12:02:28.788Z,14.69
2023-04-02T12:05:47.657Z,15.14
2023-04-02T12:09:06.018Z,15.07
2023-04-02T12:12:25.557Z,14.76
2023-04-02T12:15:45.265Z,13.94
2023-04-02T12:18:54.041Z,13.36
2023-04-02T12:21:59.437Z,13.31
2023-04-02T12:25:23.606Z,13.63
2023-04-02T12:28:33.941Z,14.02
2023-04-02T12:31:42.305Z,14.17
2023-04-02T12:34:46.485Z,14.38
2023-04-02T12:37:53.711Z,14.44
2023-04-02T12:41:19.095Z,14.44
2023-04-02T12:44:24.894Z,14.50
2023-04-02T12:47:28.300Z,14.58
2023-04-02T12:50:34.128Z,14.01
2023-04-02T12:53:40.442Z,13.68
2023-04-02T12:56:44.621Z,13.72
2023-04-02T12:59:48.026Z,13.09
2023-04-02T13:03:01.778Z,13.06
2023-04-02T13:06:17.726Z,13.16
2023-04-02T13:09:33.785Z,13.20
2023-04-02T13:12:39.020Z,12.86
2023-04-02T13:15:43.704Z,12.85
2023-04-02T13:18:48.651Z,12.82
2023-04-02T13:21:53.154Z,12.75
2023-04-02T13:24:56.341Z,12.68
2023-04-02T13:27:59.489Z,12.69
2023-04-02T13:31:02.326Z,13.01
2023-04-02T13:34:05.290Z,13.37
2023-04-02T13:37:12.306Z,13.47
2023-04-02T13:40:16.912Z,13.17
2023-04-02T13:43:20.952Z,13.50
2023-04-02T13:46:26.560Z,13.40
2023-04-02T13:49:29.891Z,13.43
2023-04-02T13:52:32.881Z,13.16
2023-04-02T13:55:39.857Z,13.01
2023-04-02T13:58:42.846Z,12.86
2023-04-02T14:01:47.238Z,13.27
2023-04-02T14:05:11.530Z,13.27
2023-04-02T14:08:38.685Z,13.02
2023-04-02T14:12:03.675Z,13.28
2023-04-02T14:15:27.819Z,13.55
2023-04-02T14:18:48.746Z,13.57
2023-04-02T14:22:11.603Z,13.39
2023-04-02T14:25:33.090Z,13.65
2023-04-02T14:28:49.170Z,14.27
2023-04-02T14:32:09.932Z,14.51
2023-04-02T14:35:29.803Z,14.04
2023-04-02T14:38:43.700Z,13.80
2023-04-02T14:41:49.399Z,13.53
2023-04-02T14:45:02.742Z,14.08
2023-04-02T14:48:18.557Z,14.11
2023-04-02T14:51:58.146Z,14.19
2023-04-02T14:55:07.243Z,13.65
2023-04-02T14:58:19.043Z,13.02
2023-04-02T15:01:27.806Z,13.08
2023-04-02T15:04:51.005Z,13.03
2023-04-02T15:08:07.471Z,13.04
2023-04-02T15:11:19.472Z,13.02
2023-04-02T15:14:48.371Z,12.99
2023-04-02T15:17:51.296Z,13.06
2023-04-02T15:21:06.498Z,12.89
2023-04-02T15:24:31.133Z,12.54
2023-04-02T15:27:57.188Z,12.47
2023-04-02T15:31:07.339Z,12.47
2023-04-02T15:34:35.486Z,12.38
2023-04-02T15:37:44.211Z,12.25
2023-04-02T15:41:15.431Z,12.14
2023-04-02T15:44:18.388Z,12.00
2023-04-02T15:47:42.328Z,12.01
2023-04-02T15:51:10.582Z,11.98
2023-04-02T15:54:27.011Z,11.90
2023-04-02T15:57:53.268Z,11.92
2023-04-02T16:01:23.984Z,11.69
2023-04-02T16:05:05.361Z,11.43
2023-04-02T16:08:17.007Z,11.25
2023-04-02T16:11:21.113Z,11.16
2023-04-02T16:14:31.537Z,11.11
2023-04-02T16:17:40.896Z,11.08
2023-04-02T16:20:51.146Z,11.17
2023-04-02T16:23:54.206Z,11.33
2023-04-02T16:26:57.284Z,11.44
2023-04-02T16:30:31.038Z,11.54
2023-04-02T16:33:59.715Z,11.37
2023-04-02T16:37:27.012Z,11.08
2023-04-02T16:41:07.112Z,10.70
2023-04-02T16:44:24.333Z,10.56
2023-04-02T16:47:44.186Z,10.43
2023-04-02T16:51:06.932Z,10.41
2023-04-02T16:54:17.275Z,10.34
2023-04-02T16:57:42.117Z,10.27
2023-04-02T17:00:51.690Z,10.17
2023-04-02T17:04:10.093Z,10.18
2023-04-02T17:07:29.334Z,10.15
2023-04-02T17:10:46.889Z,10.06
2023-04-02T17:14:16.271Z,9.90
2023-04-02T17:17:21.328Z,9.89
2023-04-02T17:20:25.960Z,9.84
2023-04-02T17:23:31.852Z,9.81
2023-04-02T17:26:37.925Z,9.71
2023-04-02T17:29:44.725Z,9.52
2023-04-02T17:32:47.475Z,9.39
2023-04-02T17:36:32.891Z,9.31
2023-04-02T17:39:53.476Z,9.18
2023-04-02T17:43:12.558Z,9.01
2023-04-02T17:46:37.880Z,8.82
2023-04-02T17:49:55.720Z,8.63
2023-04-02T17:53:19.319Z,8.58
2023-04-02T17:57:04.877Z,8.38
2023-04-02T18:00:31.692Z,8.16
2023-04-02T18:04:12.787Z,8.04
2023-04-02T18:07:47.209Z,7.97
2023-04-02T18:11:02.114Z,7.87
2023-04-02T18:14:23.429Z,7.70
2023-04-02T18:17:41.461Z,7.56
2023-04-02T18:20:53.107Z,7.44
2023-04-02T18:24:13.938Z,7.25
2023-04-02T18:27:53.416Z,7.05
2023-04-02T18:31:03.830Z,6.91
2023-04-02T18:34:25.099Z,6.76
2023-04-02T18:37:45.868Z,6.61
2023-04-02T18:41:18.669Z,6.40
2023-04-02T18:44:28.658Z,6.29
2023-04-02T18:47:46.544Z,6.10
2023-04-02T18:50:49.985Z,5.96
2023-04-02T18:54:15.854Z,5.87
2023-04-02T18:57:27.325Z,5.71
2023-04-02T19:00:34.519Z,5.62
2023-04-02T19:03:50.365Z,5.45
2023-04-02T19:07:05.887Z,5.41
2023-04-02T19:10:31.854Z,5.29
2023-04-02T19:13:34.545Z,5.28
2023-04-02T19:17:01.443Z,5.26
2023-04-02T19:20:04.062Z,5.18
2023-04-02T19:23:14.141Z,5.17
2023-04-02T19:26:24.219Z,5.12
2023-04-02T19:29:55.863Z,5.06
2023-04-02T19:33:07.660Z,5.03
2023-04-02T19:36:41.654Z,4.99
2023-04-02T19:39:56.430Z,4.96
2023-04-02T19:42:59.685Z,4.91
2023-04-02T19:46:03.182Z,4.90
2023-04-02T19:49:11.198Z,4.87
2023-04-02T19:52:13.961Z,4.74
2023-04-02T19:55:17.056Z,4.73
2023-04-02T19:58:32.869Z,4.71
2023-04-02T20:01:36.166Z,4.63
2023-04-02T20:04:39.363Z,4.59
2023-04-02T20:07:42.413Z,4.50
2023-04-02T20:10:45.803Z,4.48
2023-04-02T20:13:50.179Z,4.45
2023-04-02T20:16:53.218Z,4.37
2023-04-02T20:19:57.148Z,4.35
2023-04-02T20:23:00.663Z,4.29
2023-04-02T20:26:04.217Z,4.31
2023-04-02T20:29:07.187Z,4.14
2023-04-02T20:32:10.971Z,4.26
2023-04-02T20:35:14.019Z,4.19
2023-04-02T20:38:17.656Z,4.21
2023-04-02T20:41:21.946Z,4.20
2023-04-02T20:44:25.179Z,4.24
2023-04-02T20:47:28.142Z,4.21
2023-04-02T20:50:31.349Z,4.18
2023-04-02T20:53:36.477Z,4.15
2023-04-02T20:56:39.768Z,4.12
2023-04-02T20:59:42.782Z,4.12
2023-04-02T21:02:45.523Z,4.09
2023-04-02T21:05:48.588Z,3.99
2023-04-02T21:08:51.894Z,4.06
2023-04-02T21:11:54.932Z,4.01
2023-04-02T21:15:00.359Z,3.94
2023-04-02T21:18:06.070Z,4.01
2023-04-02T21:21:13.336Z,3.96
2023-04-02T21:24:16.259Z,3.91
2023-04-02T21:27:18.936Z,3.90
2023-04-02T21:30:21.917Z,3.89
2023-04-02T21:33:24.745Z,3.88
2023-04-02T21:36:33.232Z,3.77
2023-04-02T21:39:36.297Z,3.80
2023-04-02T21:42:39.224Z,3.74
2023-04-02T21:45:41.857Z,3.71
2023-04-02T21:48:45.217Z,3.68
2023-04-02T21:51:49.106Z,3.66
2023-04-02T21:54:52.171Z,3.61
2023-04-02T21:57:54.835Z,3.61
2023-04-02T22:00:59.065Z,3.51
2023-04-02T22:04:05.187Z,3.50
2023-04-02T22:07:07.960Z,3.50
2023-04-02T22:10:11.473Z,3.62
2023-04-02T22:13:14.180Z,3.52
2023-04-02T22:16:19.996Z,3.54
2023-04-02T22:19:22.795Z,3.54
2023-04-02T22:22:25.864Z,3.52
2023-04-02T22:25:28.486Z,3.46
2023-04-02T22:28:32.021Z,3.46
2023-04-02T22:31:35.464Z,3.49
2023-04-02T22:34:45.521Z,3.61
2023-04-02T22:37:48.182Z,3.57
2023-04-02T22:40:51.283Z,3.52
2023-04-02T22:43:57.245Z,3.42
2023-04-02T22:47:00.372Z,3.45
2023-04-02T22:50:03.218Z,3.38
2023-04-02T22:53:06.390Z,3.30
2023-04-02T22:56:22.065Z,3.31
2023-04-02T22:59:25.721Z,3.34
2023-04-02T23:02:28.728Z,3.29
2023-04-02T23:05:31.840Z,3.32
2023-04-02T23:08:38.434Z,3.19
2023-04-02T23:11:41.498Z,3.25
2023-04-02T23:14:44.265Z,3.23
2023-04-02T23:17:47.283Z,3.24
2023-04-02T23:20:49.968Z,3.26
2023-04-02T23:23:53.643Z,3.25
2023-04-02T23:26:56.342Z,3.23
2023-04-02T23:29:59.447Z,3.21
2023-04-02T23:33:03.603Z,2.97
2023-04-02T23:36:24.924Z,3.16
2023-04-02T23:39:27.553Z,3.23
2023-04-02T23:42:30.509Z,3.25
2023-04-02T23:45:33.136Z,3.24
2023-04-02T23:48:36.235Z,3.25
2023-04-02T23:51:39.377Z,3.37
2023-04-02T23:54:42.401Z,3.35
2023-04-02T23:57:45.082Z,3.39
